createdAt,value
2018-12-08T00:01:28.534Z,21.15
2018-12-08T00:06:31.011Z,21.17
2018-12-08T00:11:33.529Z,21.15
2018-12-08T00:16:36.026Z,21.15
2018-12-08T00:21:38.498Z,21.16
2018-12-08T00:26:40.984Z,21.14
2018-12-08T00:31:44.721Z,21.14
2018-12-08T00:36:47.405Z,21.12
2018-12-08T00:41:49.934Z,21.13
2018-12-08T00:46:52.426Z,21.12
2018-12-08T00:51:55.522Z,21.14
2018-12-08T00:56:58.065Z,21.12
2018-12-08T01:02:00.558Z,21.11
2018-12-08T01:07:03.038Z,21.11
2018-12-08T01:12:05.563Z,21.10
2018-12-08T01:17:08.077Z,21.09
2018-12-08T01:22:10.597Z,21.09
2018-12-08T01:27:13.090Z,21.08
2018-12-08T01:32:16.417Z,21.08
2018-12-08T01:37:18.917Z,21.08
2018-12-08T01:42:21.385Z,21.07
2018-12-08T01:47:23.852Z,21.08
2018-12-08T01:52:26.374Z,21.08
2018-12-08T01:57:28.895Z,21.08
2018-12-08T02:02:31.362Z,21.07
2018-12-08T02:07:33.881Z,21.03
2018-12-08T02:12:36.377Z,21.03
2018-12-08T02:17:38.873Z,21.06
2018-12-08T02:22:41.353Z,21.05
2018-12-08T02:27:43.827Z,21.06
2018-12-08T02:32:46.290Z,21.03
2018-12-08T02:37:48.759Z,21.03
2018-12-08T02:42:52.046Z,21.05
2018-12-08T02:47:54.530Z,21.04
2018-12-08T02:52:57.470Z,21.04
2018-12-08T02:57:59.968Z,21.05
2018-12-08T03:03:02.474Z,21.02
2018-12-08T03:08:05.073Z,21.01
2018-12-08T03:13:07.549Z,21.03
2018-12-08T03:18:10.122Z,21.03
2018-12-08T03:23:12.686Z,21.01
2018-12-08T03:28:15.157Z,21.02
2018-12-08T03:33:17.622Z,21.02
2018-12-08T03:38:20.270Z,21.02
2018-12-08T03:43:22.921Z,21.01
2018-12-08T03:48:25.418Z,21.03
2018-12-08T03:53:28.648Z,21.00
2018-12-08T03:58:31.171Z,20.98
2018-12-08T04:03:33.645Z,21.01
2018-12-08T04:08:36.163Z,21.00
2018-12-08T04:13:38.639Z,20.99
2018-12-08T04:18:41.141Z,21.00
2018-12-08T04:23:43.630Z,20.97
2018-12-08T04:28:46.133Z,20.99
2018-12-08T04:33:49.395Z,20.96
2018-12-08T04:38:51.868Z,20.98
2018-12-08T04:43:54.434Z,20.94
2018-12-08T04:48:56.910Z,20.97
2018-12-08T04:53:59.389Z,20.98
2018-12-08T04:59:01.886Z,20.97
2018-12-08T05:04:04.415Z,20.96
2018-12-08T05:09:07.122Z,20.94
2018-12-08T05:14:09.613Z,20.95
2018-12-08T05:19:12.081Z,20.95
2018-12-08T05:24:15.121Z,20.94
2018-12-08T05:29:17.617Z,20.95
2018-12-08T05:34:20.087Z,20.95
2018-12-08T05:39:22.613Z,20.95
2018-12-08T05:44:25.079Z,20.95
2018-12-08T05:49:27.922Z,20.95
2018-12-08T05:54:30.614Z,20.94
2018-12-08T05:59:33.637Z,20.95
2018-12-08T06:04:36.585Z,20.95
2018-12-08T06:09:39.090Z,20.95
2018-12-08T06:14:41.588Z,20.94
2018-12-08T06:19:44.094Z,20.94
2018-12-08T06:24:46.591Z,20.93
2018-12-08T06:29:49.347Z,20.92
2018-12-08T06:34:51.985Z,20.92
2018-12-08T06:39:54.498Z,20.93
2018-12-08T06:44:57.129Z,20.92
2018-12-08T06:49:59.701Z,20.93
2018-12-08T06:55:02.322Z,20.91
2018-12-08T07:00:06.089Z,20.88
2018-12-08T07:05:08.613Z,20.85
2018-12-08T07:10:11.082Z,20.82
2018-12-08T07:15:13.574Z,20.84
2018-12-08T07:20:16.069Z,20.85
2018-12-08T07:25:18.609Z,20.86
2018-12-08T07:30:21.134Z,20.89
2018-12-08T07:35:24.531Z,20.90
2018-12-08T07:40:27.050Z,20.87
2018-12-08T07:45:29.534Z,20.84
2018-12-08T07:50:32.020Z,20.85
2018-12-08T07:55:34.514Z,20.75
2018-12-08T08:00:37.001Z,18.33
2018-12-08T08:05:39.502Z,19.21
2018-12-08T08:10:42.000Z,19.80
2018-12-08T08:15:44.465Z,20.10
2018-12-08T08:20:46.933Z,20.29
2018-12-08T08:25:49.521Z,20.42
2018-12-08T08:30:52.017Z,20.50
2018-12-08T08:35:54.481Z,20.61
2018-12-08T08:40:57.190Z,20.72
2018-12-08T08:45:59.902Z,20.75
2018-12-08T08:51:02.437Z,20.79
2018-12-08T08:56:04.990Z,20.91
2018-12-08T09:01:07.454Z,20.98
2018-12-08T09:06:09.955Z,21.04
2018-12-08T09:11:12.461Z,21.08
2018-12-08T09:16:14.953Z,21.10
2018-12-08T09:21:17.422Z,21.16
2018-12-08T09:26:20.602Z,21.18
2018-12-08T09:31:23.099Z,21.19
2018-12-08T09:36:25.674Z,21.28
2018-12-08T09:41:28.280Z,21.26
2018-12-08T09:46:30.754Z,21.24
2018-12-08T09:51:34.062Z,21.24
2018-12-08T09:56:37.014Z,21.21
2018-12-08T10:01:39.541Z,21.27
2018-12-08T10:06:42.173Z,21.27
2018-12-08T10:11:44.704Z,21.26
2018-12-08T10:16:47.545Z,21.27
2018-12-08T10:21:50.157Z,21.29
2018-12-08T10:26:52.809Z,21.35
2018-12-08T10:31:55.297Z,21.41
2018-12-08T10:36:57.962Z,21.39
2018-12-08T10:42:00.557Z,21.42
2018-12-08T10:47:03.130Z,21.39
2018-12-08T10:52:05.783Z,21.38
2018-12-08T10:57:08.286Z,21.37
2018-12-08T11:02:16.409Z,21.34
2018-12-08T11:07:18.901Z,21.37
2018-12-08T11:12:21.674Z,21.40
2018-12-08T11:17:24.281Z,21.40
2018-12-08T11:22:28.482Z,21.41
2018-12-08T11:27:30.980Z,21.41
2018-12-08T11:32:33.473Z,21.42
2018-12-08T11:37:36.298Z,21.45
2018-12-08T11:42:39.245Z,21.52
2018-12-08T11:47:41.966Z,21.54
2018-12-08T11:52:44.681Z,21.54
2018-12-08T11:57:47.238Z,21.55
2018-12-08T12:02:49.734Z,21.52
2018-12-08T12:07:52.206Z,21.51
2018-12-08T12:12:54.702Z,21.54
2018-12-08T12:17:57.468Z,21.51
2018-12-08T12:23:00.078Z,21.47
2018-12-08T12:28:02.793Z,21.40
2018-12-08T12:33:05.376Z,21.41
2018-12-08T12:38:08.002Z,21.39
2018-12-08T12:43:10.633Z,21.39
2018-12-08T12:48:13.129Z,21.37
2018-12-08T12:53:15.801Z,21.33
2018-12-08T12:58:18.321Z,21.33
2018-12-08T13:03:20.793Z,21.31
2018-12-08T13:08:23.269Z,21.31
2018-12-08T13:13:25.765Z,21.32
2018-12-08T13:18:28.387Z,21.29
2018-12-08T13:23:30.986Z,21.29
2018-12-08T13:28:34.294Z,21.26
2018-12-08T13:33:36.886Z,21.26
2018-12-08T13:38:39.462Z,21.27
2018-12-08T13:43:45.785Z,21.27
2018-12-08T13:48:48.330Z,21.26
2018-12-08T13:53:50.846Z,21.27
2018-12-08T13:58:54.875Z,21.29
2018-12-08T14:03:57.573Z,21.28
2018-12-08T14:09:00.181Z,21.27
2018-12-08T14:14:02.785Z,21.28
2018-12-08T14:19:05.353Z,21.28
2018-12-08T14:24:07.864Z,21.27
2018-12-08T14:29:10.355Z,21.28
2018-12-08T14:34:13.830Z,21.27
2018-12-08T14:39:16.345Z,21.25
2018-12-08T14:44:18.859Z,21.26
2018-12-08T14:49:21.429Z,21.26
2018-12-08T14:54:23.926Z,21.25
2018-12-08T14:59:27.174Z,21.25
2018-12-08T15:04:29.649Z,21.26
2018-12-08T15:09:32.133Z,21.30
2018-12-08T15:14:34.837Z,21.31
2018-12-08T15:19:37.360Z,21.29
2018-12-08T15:24:39.977Z,21.27
2018-12-08T15:29:42.877Z,21.27
2018-12-08T15:34:45.349Z,21.27
2018-12-08T15:39:48.641Z,21.24
2018-12-08T15:44:51.195Z,21.27
2018-12-08T15:49:53.686Z,21.27
2018-12-08T15:54:56.256Z,21.26
2018-12-08T15:59:58.917Z,21.26
2018-12-08T16:05:01.441Z,21.23
2018-12-08T16:10:08.466Z,21.28
2018-12-08T16:15:11.005Z,21.34
2018-12-08T16:20:13.757Z,21.35
2018-12-08T16:25:16.354Z,21.38
2018-12-08T16:30:18.950Z,21.37
2018-12-08T16:35:21.438Z,21.40
2018-12-08T16:40:24.034Z,21.39
2018-12-08T16:45:27.189Z,21.01
2018-12-08T16:50:29.837Z,20.62
2018-12-08T16:55:32.345Z,20.25
2018-12-08T17:00:34.921Z,20.08
2018-12-08T17:05:37.449Z,20.43
2018-12-08T17:10:40.007Z,20.62
2018-12-08T17:15:42.486Z,20.72
2018-12-08T17:20:45.004Z,20.78
2018-12-08T17:25:47.686Z,20.85
2018-12-08T17:30:50.281Z,20.91
2018-12-08T17:35:52.877Z,21.03
2018-12-08T17:40:55.477Z,21.09
2018-12-08T17:45:58.013Z,21.11
2018-12-08T17:51:00.768Z,21.12
2018-12-08T17:56:03.462Z,21.12
2018-12-08T18:01:06.022Z,21.11
2018-12-08T18:06:08.537Z,21.15
2018-12-08T18:11:11.049Z,21.17
2018-12-08T18:16:13.577Z,21.19
2018-12-08T18:21:16.213Z,21.21
2018-12-08T18:26:18.920Z,21.21
2018-12-08T18:31:21.405Z,21.22
2018-12-08T18:36:24.014Z,21.23
2018-12-08T18:41:26.590Z,21.23
2018-12-08T18:46:29.089Z,21.22
2018-12-08T18:51:31.687Z,21.23
2018-12-08T18:56:34.177Z,21.24
2018-12-08T19:01:36.670Z,21.23
2018-12-08T19:06:39.228Z,21.24
2018-12-08T19:11:41.753Z,21.25
2018-12-08T19:16:44.349Z,21.24
2018-12-08T19:21:46.874Z,21.26
2018-12-08T19:26:49.438Z,21.26
2018-12-08T19:31:52.141Z,21.43
2018-12-08T19:36:55.779Z,21.47
2018-12-08T19:41:59.108Z,21.49
2018-12-08T19:47:01.618Z,21.52
2018-12-08T19:52:04.253Z,21.55
2018-12-08T19:57:06.748Z,21.57
2018-12-08T20:02:09.255Z,21.60
2018-12-08T20:07:11.826Z,21.61
2018-12-08T20:12:14.317Z,21.63
2018-12-08T20:17:16.808Z,21.59
2018-12-08T20:22:19.370Z,21.53
2018-12-08T20:27:21.858Z,21.52
2018-12-08T20:32:24.392Z,21.47
2018-12-08T20:37:26.877Z,21.47
2018-12-08T20:42:29.473Z,21.44
2018-12-08T20:47:32.095Z,21.43
2018-12-08T20:52:34.765Z,21.41
2018-12-08T20:57:37.257Z,21.40
2018-12-08T21:02:39.738Z,21.38
2018-12-08T21:07:42.341Z,21.36
2018-12-08T21:12:44.833Z,21.32
2018-12-08T21:17:47.341Z,21.33
2018-12-08T21:22:49.861Z,21.34
2018-12-08T21:27:52.413Z,21.33
2018-12-08T21:32:54.902Z,21.30
2018-12-08T21:37:57.410Z,21.27
2018-12-08T21:42:59.993Z,21.27
2018-12-08T21:48:02.482Z,21.28
2018-12-08T21:53:05.077Z,21.25
2018-12-08T21:58:07.546Z,21.24
2018-12-08T22:03:10.167Z,21.25
2018-12-08T22:08:12.655Z,21.24
2018-12-08T22:13:15.137Z,21.23
2018-12-08T22:18:17.638Z,21.22
2018-12-08T22:23:20.127Z,21.23
2018-12-08T22:28:22.623Z,21.24
2018-12-08T22:33:25.212Z,21.21
2018-12-08T22:38:28.673Z,21.19
2018-12-08T22:43:31.529Z,21.21
2018-12-08T22:48:35.044Z,21.23
2018-12-08T22:53:37.529Z,21.26
2018-12-08T22:58:40.129Z,21.27
2018-12-08T23:03:42.638Z,21.29
2018-12-08T23:08:45.223Z,21.28
2018-12-08T23:13:47.705Z,21.28
2018-12-08T23:18:50.405Z,21.28
2018-12-08T23:23:52.922Z,21.29
2018-12-08T23:28:55.401Z,21.29
2018-12-08T23:33:57.981Z,21.30
2018-12-08T23:39:00.530Z,21.30
2018-12-08T23:44:03.128Z,21.30
2018-12-08T23:49:11.198Z,21.29
2018-12-08T23:54:10.305Z,21.27
2018-12-08T23:59:12.797Z,21.29
